createdAt,value
2018-07-11T00:00:02.656Z,15.6
2018-07-11T00:15:03.058Z,15.2
2018-07-11T00:30:02.486Z,15.4
2018-07-11T00:45:02.763Z,15.6
2018-07-11T01:00:03.164Z,15.5
2018-07-11T01:15:02.491Z,15.4
2018-07-11T01:30:02.990Z,15.3
2018-07-11T01:45:02.349Z,15.3
2018-07-11T02:00:02.682Z,15.2
2018-07-11T02:15:02.978Z,15.1
2018-07-11T02:30:02.391Z,15
2018-07-11T02:45:02.734Z,14.9
2018-07-11T03:00:03.091Z,14.8
2018-07-11T03:15:02.380Z,14.8
2018-07-11T03:30:02.940Z,14.9
2018-07-11T03:45:02.467Z,14.9
2018-07-11T04:00:02.767Z,14.8
2018-07-11T04:15:03.091Z,14.9
2018-07-11T04:30:02.478Z,14.8
2018-07-11T04:45:02.851Z,14.9
2018-07-11T05:00:03.192Z,15.1
2018-07-11T05:15:02.574Z,15.2
2018-07-11T05:30:02.968Z,15.5
2018-07-11T05:45:02.300Z,15.5
2018-07-11T06:00:02.682Z,15.6
2018-07-11T06:15:03.199Z,16.1
2018-07-11T06:30:02.704Z,16.3
2018-07-11T06:45:03.000Z,16.4
2018-07-11T07:00:02.356Z,16.4
2018-07-11T07:15:02.667Z,16.4
2018-07-11T07:30:03.108Z,16.1
2018-07-11T07:45:02.476Z,16.1
2018-07-11T08:00:02.810Z,16.8
2018-07-11T08:15:03.213Z,16.7
2018-07-11T08:30:02.570Z,17.4
2018-07-11T08:45:02.916Z,18.5
2018-07-11T09:00:03.306Z,18.2
2018-07-11T09:15:03.123Z,18.9
2018-07-11T09:30:02.573Z,18
2018-07-11T09:45:02.884Z,20.9
2018-07-11T10:00:03.270Z,19.6
2018-07-11T10:15:02.566Z,21.4
2018-07-11T10:30:02.988Z,20.5
2018-07-11T10:45:02.365Z,19.8
2018-07-11T11:00:02.770Z,21.3
2018-07-11T11:15:03.123Z,20.3
2018-07-11T11:30:02.483Z,20.4
2018-07-11T11:45:02.819Z,19.4
2018-07-11T12:00:03.168Z,19.5
2018-07-11T12:15:02.512Z,19.1
2018-07-11T12:30:02.906Z,19.2
2018-07-11T12:45:03.210Z,18.2
2018-07-11T13:00:02.565Z,19.3
2018-07-11T13:15:02.908Z,19.2
2018-07-11T13:30:02.279Z,20.7
2018-07-11T13:45:02.599Z,20.2
2018-07-11T14:00:02.891Z,21
2018-07-11T14:15:03.282Z,21.3
2018-07-11T14:30:02.720Z,21.4
2018-07-11T14:45:03.013Z,21.1
2018-07-11T15:00:02.363Z,21.6
2018-07-11T15:15:02.726Z,20.8
2018-07-11T15:30:03.163Z,20.2
2018-07-11T15:45:02.469Z,19.9
2018-07-11T16:00:02.863Z,19.4
2018-07-11T16:15:02.283Z,19.6
2018-07-11T16:30:02.694Z,19.2
2018-07-11T16:45:02.988Z,19
2018-07-11T17:00:02.387Z,18.9
2018-07-11T17:15:02.792Z,18.6
2018-07-11T17:30:03.210Z,18.8
2018-07-11T17:45:02.547Z,18.6
2018-07-11T18:00:02.896Z,18.4
2018-07-11T18:15:03.238Z,18.1
2018-07-11T18:30:02.691Z,17.9
2018-07-11T18:45:03.032Z,17.6
2018-07-11T19:00:02.413Z,17
2018-07-11T19:15:02.688Z,16.7
2018-07-11T19:30:03.087Z,16.3
2018-07-11T19:45:02.490Z,15.9
2018-07-11T20:00:02.783Z,15.4
2018-07-11T20:15:03.088Z,15.2
2018-07-11T20:30:02.470Z,15
2018-07-11T20:45:02.839Z,14.9
2018-07-11T21:00:03.198Z,14.6
2018-07-11T21:15:02.502Z,14.4
2018-07-11T21:30:02.877Z,14.2
2018-07-11T21:45:03.197Z,14
2018-07-11T22:00:02.483Z,13.8
2018-07-11T22:15:02.841Z,13.5
2018-07-11T22:30:03.284Z,13.5
2018-07-11T22:45:02.605Z,13.2
2018-07-11T23:00:02.897Z,13.2
2018-07-11T23:15:03.204Z,12.9
2018-07-11T23:30:02.669Z,12.9
2018-07-11T23:45:03.102Z,12.8
